Time;durP1;ratioP1;P1;durP2;ratioP2;P2;SDS_P1;SDS_P2;PMS_P1;PMS_P2;Temp;Humidity;BMP_temperature;BMP_pressure;BME280_temperature;BME280_humidity;BME280_pressure;Samples;Min_cycle;Max_cycle;Signal;HPM_P1;HPM_P2
2021/12/02 00:01:59;;;;;;;;;;;5.40;99.90;;;;;;5010193;28;19924;-72
2021/12/02 00:04:27;;;;;;;;;;;5.50;99.90;;;;;;5007697;28;20436;-70
2021/12/02 00:06:52;;;;;;;;;;;5.50;99.90;;;;;;5008780;28;19914;-71
2021/12/02 00:09:18;;;;;;;;;;;5.50;99.90;;;;;;5009771;28;19932;-71
2021/12/02 00:11:43;;;;;;;;;;;5.60;99.90;;;;;;5009988;28;19913;-71
2021/12/02 00:14:11;;;;;;;;;;;5.60;99.90;;;;;;5009671;28;19943;-70
2021/12/02 00:16:51;;;;;;;;;;;5.60;99.90;;;;;;5016212;28;19918;-71
2021/12/02 00:22:01;;;;;;;;;;;5.60;99.90;;;;;;5034995;28;19924;-69
2021/12/02 00:24:30;;;;;;;;;;;5.80;99.90;;;;;;5041569;28;19928;-69
2021/12/02 00:26:57;;;;;;;;;;;5.80;99.90;;;;;;5022682;28;19944;-70
2021/12/02 00:29:23;;;;;;;;;;;5.70;99.90;;;;;;5011940;28;19963;-68
2021/12/02 00:31:49;;;;;;;;;;;5.70;99.90;;;;;;5012080;28;19918;-68
2021/12/02 00:34:15;;;;;;;;;;;5.60;99.90;;;;;;5010217;28;19913;-70
2021/12/02 00:36:41;;;;;;;;;;;5.60;99.90;;;;;;5010597;28;19920;-71
2021/12/02 00:39:14;;;;;;;;;;;5.50;99.90;;;;;;5010805;28;19914;-69
2021/12/02 00:41:40;;;;;;;;;;;5.50;99.90;;;;;;5011013;28;20382;-70
2021/12/02 00:44:06;;;;;;;;;;;5.50;99.90;;;;;;5010535;28;20433;-70
2021/12/02 00:46:32;;;;;;;;;;;5.50;99.90;;;;;;5013690;28;20263;-70
2021/12/02 00:49:02;;;;;;;;;;;5.50;99.90;;;;;;5021354;28;19952;-69
2021/12/02 00:51:28;;;;;;;;;;;5.50;99.90;;;;;;5024175;28;19913;-70
2021/12/02 00:53:54;;;;;;;;;;;5.50;99.90;;;;;;5022152;28;19917;-72
2021/12/02 00:56:21;;;;;;;;;;;5.50;99.90;;;;;;5009858;28;20032;-69
2021/12/02 00:58:48;;;;;;;;;;;5.40;99.90;;;;;;5007991;28;19960;-68
2021/12/02 01:01:14;;;;;;;;;;;5.40;99.90;;;;;;5008958;28;19913;-70
2021/12/02 01:03:39;;;;;;;;;;;5.40;99.90;;;;;;5008612;28;19929;-70
2021/12/02 01:06:06;;;;;;;;;;;5.40;99.90;;;;;;5010519;28;19924;-71
2021/12/02 01:08:35;;;;;;;;;;;5.30;99.90;;;;;;5030003;28;19943;-70
2021/12/02 01:11:01;;;;;;;;;;;5.30;99.90;;;;;;5019241;28;19971;-70
2021/12/02 01:13:26;;;;;;;;;;;5.30;99.90;;;;;;5010977;28;19917;-70
2021/12/02 01:15:52;;;;;;;;;;;5.30;99.90;;;;;;5010019;28;19914;-69
2021/12/02 01:18:17;;;;;;;;;;;5.40;99.90;;;;;;5009706;28;19914;-69
2021/12/02 01:20:45;;;;;;;;;;;5.40;99.90;;;;;;5013756;28;19909;-69
2021/12/02 01:23:11;;;;;;;;;;;5.50;99.90;;;;;;5026076;28;19913;-69
2021/12/02 01:25:37;;;;;;;;;;;5.50;99.90;;;;;;5015313;28;19921;-69
2021/12/02 01:28:03;;;;;;;;;;;5.50;99.90;;;;;;5029323;28;20114;-69
2021/12/02 01:30:29;;;;;;;;;;;5.50;99.90;;;;;;5031665;28;20032;-69
2021/12/02 01:33:02;;;;;;;;;;;5.50;99.90;;;;;;5042470;28;19921;-70
2021/12/02 01:35:28;;;;;;;;;;;5.30;99.90;;;;;;5036533;28;19949;-71
2021/12/02 01:37:53;;;;;;;;;;;5.30;99.90;;;;;;5040181;28;20191;-70
2021/12/02 01:40:19;;;;;;;;;;;5.30;99.90;;;;;;5033549;28;19952;-69
2021/12/02 01:42:45;;;;;;;;;;;5.30;99.90;;;;;;5009639;28;19964;-69
2021/12/02 01:45:14;;;;;;;;;;;5.30;99.90;;;;;;5009284;28;19917;-71
2021/12/02 01:47:43;;;;;;;;;;;5.20;99.90;;;;;;5025442;28;19909;-69
2021/12/02 01:50:10;;;;;;;;;;;5.20;99.90;;;;;;5018839;28;19921;-72
2021/12/02 01:52:36;;;;;;;;;;;5.10;99.90;;;;;;5008233;28;19963;-70
2021/12/02 01:55:05;;;;;;;;;;;5.10;99.90;;;;;;5008226;28;20241;-70
2021/12/02 01:57:32;;;;;;;;;;;5.10;99.90;;;;;;5008792;28;19910;-69
2021/12/02 02:00:14;;;;;;;;;;;5.10;99.90;;;;;;5008602;28;19921;-69
2021/12/02 02:02:40;;;;;;;;;;;5.10;99.90;;;;;;5007092;28;19921;-69
2021/12/02 02:05:11;;;;;;;;;;;5.10;99.90;;;;;;5009001;28;20413;-69
2021/12/02 02:07:41;;;;;;;;;;;5.10;99.90;;;;;;5014405;28;20038;-70
2021/12/02 02:10:06;;;;;;;;;;;5.10;99.90;;;;;;5007932;28;19917;-71
2021/12/02 02:12:32;;;;;;;;;;;5.20;99.90;;;;;;5008178;28;19913;-70
2021/12/02 02:14:58;;;;;;;;;;;5.10;99.90;;;;;;5008609;28;19910;-71
2021/12/02 02:17:28;;;;;;;;;;;5.10;99.90;;;;;;5009266;28;20437;-69
2021/12/02 02:19:54;;;;;;;;;;;5.20;99.90;;;;;;5009490;28;19918;-68
2021/12/02 02:22:22;;;;;;;;;;;5.30;99.90;;;;;;5010175;28;19921;-69
2021/12/02 02:24:48;;;;;;;;;;;5.40;99.90;;;;;;5008302;28;19914;-68
2021/12/02 02:27:14;;;;;;;;;;;5.20;99.90;;;;;;5022774;28;19913;-70
2021/12/02 02:29:39;;;;;;;;;;;5.20;99.90;;;;;;5008285;28;19910;-69
2021/12/02 02:32:05;;;;;;;;;;;5.20;99.90;;;;;;5008556;28;20008;-69
2021/12/02 02:34:30;;;;;;;;;;;5.20;99.90;;;;;;5032549;28;19910;-71
2021/12/02 02:36:59;;;;;;;;;;;5.10;99.90;;;;;;5010853;28;19917;-70
2021/12/02 02:39:27;;;;;;;;;;;5.10;99.90;;;;;;5008749;28;20368;-70
2021/12/02 02:41:59;;;;;;;;;;;5.00;99.90;;;;;;5027358;28;19915;-70
2021/12/02 02:44:26;;;;;;;;;;;5.00;99.90;;;;;;5013940;28;19957;-70
2021/12/02 02:46:51;;;;;;;;;;;5.00;99.90;;;;;;5008311;28;19921;-70
2021/12/02 02:49:17;;;;;;;;;;;5.10;99.90;;;;;;5008605;28;19921;-70
2021/12/02 02:51:43;;;;;;;;;;;5.20;99.90;;;;;;5008013;28;19917;-70
2021/12/02 02:54:10;;;;;;;;;;;5.30;99.90;;;;;;5023087;28;20376;-70
2021/12/02 02:56:41;;;;;;;;;;;5.30;99.90;;;;;;5007638;28;19918;-70
2021/12/02 02:59:18;;;;;;;;;;;5.20;99.90;;;;;;5013007;28;20012;-69
2021/12/02 03:02:03;;;;;;;;;;;5.20;99.90;;;;;;5012529;28;19913;-69
2021/12/02 03:08:11;;;;;;;;;;;5.10;99.90;;;;;;5015507;28;19913;-69
2021/12/02 03:10:09;;;;;;;;;;;5.20;99.90;;;;;;5014672;28;20373;-69
2021/12/02 03:12:40;;;;;;;;;;;5.20;99.90;;;;;;5011051;28;20307;-70
2021/12/02 03:17:31;;;;;;;;;;;5.20;99.90;;;;;;5011539;28;19914;-69
2021/12/02 03:19:57;;;;;;;;;;;5.20;99.90;;;;;;5010486;28;20645;-71
2021/12/02 03:22:22;;;;;;;;;;;5.20;99.90;;;;;;5016186;28;19909;-69
2021/12/02 03:24:48;;;;;;;;;;;5.20;99.90;;;;;;5010925;28;19921;-69
2021/12/02 03:27:14;;;;;;;;;;;5.20;99.90;;;;;;5034908;28;19945;-71
2021/12/02 03:29:40;;;;;;;;;;;5.20;99.90;;;;;;5030740;28;19917;-68
2021/12/02 03:32:06;;;;;;;;;;;5.20;99.90;;;;;;5021467;28;19914;-68
2021/12/02 03:34:32;;;;;;;;;;;5.20;99.90;;;;;;5010064;28;20259;-69
2021/12/02 03:36:58;;;;;;;;;;;5.20;99.90;;;;;;5010192;28;19913;-68
2021/12/02 03:39:25;;;;;;;;;;;5.20;99.90;;;;;;5017919;28;19940;-68
2021/12/02 03:41:51;;;;;;;;;;;5.10;99.90;;;;;;5023051;28;20293;-69
2021/12/02 03:44:16;;;;;;;;;;;5.10;99.90;;;;;;5010505;28;19921;-70
2021/12/02 03:46:42;;;;;;;;;;;5.00;99.90;;;;;;5010385;28;20423;-70
2021/12/02 03:49:07;;;;;;;;;;;5.10;99.90;;;;;;5009981;28;20339;-70
2021/12/02 03:51:33;;;;;;;;;;;5.10;99.90;;;;;;5010051;28;20445;-68
2021/12/02 03:53:59;;;;;;;;;;;5.20;99.90;;;;;;5009780;28;20051;-71
2021/12/02 03:56:25;;;;;;;;;;;5.10;99.90;;;;;;5040402;28;20286;-70
2021/12/02 03:58:51;;;;;;;;;;;4.90;99.90;;;;;;5028278;28;19996;-71
2021/12/02 04:01:17;;;;;;;;;;;4.60;99.90;;;;;;5010261;28;20068;-70
2021/12/02 04:03:42;;;;;;;;;;;4.50;99.90;;;;;;5016488;28;20453;-68
2021/12/02 04:06:08;;;;;;;;;;;4.50;99.90;;;;;;5018973;28;19955;-70
2021/12/02 04:16:20;;;;;;;;;;;4.50;99.90;;;;;;5009969;28;19913;-70
2021/12/02 04:18:45;;;;;;;;;;;4.50;99.90;;;;;;5013983;28;20286;-67
2021/12/02 04:21:11;;;;;;;;;;;4.50;99.90;;;;;;5016050;28;19914;-69
2021/12/02 04:23:36;;;;;;;;;;;4.50;99.90;;;;;;5011250;28;19914;-70
2021/12/02 04:26:02;;;;;;;;;;;4.50;99.90;;;;;;5009707;28;19964;-70
2021/12/02 04:28:28;;;;;;;;;;;4.60;99.90;;;;;;5011133;28;20374;-71
2021/12/02 04:30:53;;;;;;;;;;;4.50;99.90;;;;;;5012807;28;19921;-69
2021/12/02 04:33:18;;;;;;;;;;;4.60;99.90;;;;;;5010956;28;19909;-70
2021/12/02 04:35:44;;;;;;;;;;;4.50;99.90;;;;;;5010770;28;19910;-68
2021/12/02 04:38:09;;;;;;;;;;;4.60;99.90;;;;;;5023994;28;19897;-70
2021/12/02 04:40:36;;;;;;;;;;;4.60;99.90;;;;;;5040483;28;19897;-71
2021/12/02 04:43:02;;;;;;;;;;;4.60;99.90;;;;;;5032968;28;19953;-70
2021/12/02 04:45:27;;;;;;;;;;;4.60;99.90;;;;;;5018354;28;19977;-69
2021/12/02 04:47:53;;;;;;;;;;;4.60;99.90;;;;;;5011285;28;20012;-70
2021/12/02 04:50:18;;;;;;;;;;;4.60;99.90;;;;;;5009600;28;19916;-70
2021/12/02 04:52:44;;;;;;;;;;;4.70;99.90;;;;;;5009274;28;19909;-70
2021/12/02 04:55:09;;;;;;;;;;;4.60;99.90;;;;;;5009365;28;19913;-68
2021/12/02 04:57:35;;;;;;;;;;;4.50;99.90;;;;;;5010051;28;19913;-71
2021/12/02 05:00:00;;;;;;;;;;;4.50;99.90;;;;;;5008287;28;20372;-68
2021/12/02 05:02:26;;;;;;;;;;;4.50;99.90;;;;;;5009523;28;19960;-71
2021/12/02 05:04:51;;;;;;;;;;;4.50;99.90;;;;;;5024150;28;20031;-68
2021/12/02 05:07:16;;;;;;;;;;;4.50;99.90;;;;;;5029895;28;20154;-69
2021/12/02 05:09:42;;;;;;;;;;;4.40;99.90;;;;;;5009440;28;20449;-69
2021/12/02 05:12:07;;;;;;;;;;;4.40;99.90;;;;;;5009178;28;20404;-70
2021/12/02 05:14:33;;;;;;;;;;;4.40;99.90;;;;;;5008782;28;20435;-69
2021/12/02 05:16:58;;;;;;;;;;;4.30;99.90;;;;;;5011817;28;20005;-70
2021/12/02 05:19:24;;;;;;;;;;;4.30;99.90;;;;;;5012620;28;19929;-69
2021/12/02 05:21:49;;;;;;;;;;;4.20;99.90;;;;;;5015305;28;19909;-71
2021/12/02 05:24:15;;;;;;;;;;;4.20;99.90;;;;;;5012828;28;20020;-70
2021/12/02 05:26:40;;;;;;;;;;;4.20;99.90;;;;;;5009223;28;20149;-70
2021/12/02 05:29:06;;;;;;;;;;;4.20;99.90;;;;;;5009343;28;20297;-71
2021/12/02 05:31:31;;;;;;;;;;;4.20;99.90;;;;;;5025907;28;19916;-70
2021/12/02 05:33:57;;;;;;;;;;;4.20;99.90;;;;;;5008159;28;20445;-70
2021/12/02 05:36:22;;;;;;;;;;;4.30;99.90;;;;;;5013444;28;20431;-71
2021/12/02 05:38:48;;;;;;;;;;;4.40;99.90;;;;;;5041389;28;19928;-70
2021/12/02 05:41:14;;;;;;;;;;;4.40;99.90;;;;;;5056635;28;20377;-69
2021/12/02 05:43:40;;;;;;;;;;;4.30;99.90;;;;;;5012853;28;20392;-69
2021/12/02 05:46:06;;;;;;;;;;;4.20;99.90;;;;;;5009711;28;20092;-69
2021/12/02 05:48:32;;;;;;;;;;;4.30;99.90;;;;;;5009043;28;19909;-71
2021/12/02 05:50:57;;;;;;;;;;;4.30;99.90;;;;;;5008123;28;19936;-70
2021/12/02 05:53:23;;;;;;;;;;;4.30;99.90;;;;;;5008789;28;20404;-70
2021/12/02 05:55:48;;;;;;;;;;;4.30;99.90;;;;;;5008138;28;20302;-70
2021/12/02 05:58:14;;;;;;;;;;;4.40;99.90;;;;;;5005305;28;20004;-69
2021/12/02 06:00:40;;;;;;;;;;;4.40;99.90;;;;;;5005822;28;19914;-70
2021/12/02 06:03:05;;;;;;;;;;;4.30;99.90;;;;;;5011398;28;19977;-69
2021/12/02 06:05:31;;;;;;;;;;;4.20;99.90;;;;;;5015449;28;19953;-71
2021/12/02 06:07:58;;;;;;;;;;;4.30;99.90;;;;;;5018966;28;19922;-71
2021/12/02 06:10:25;;;;;;;;;;;4.30;99.90;;;;;;5011086;28;19920;-71
2021/12/02 06:12:50;;;;;;;;;;;4.30;99.90;;;;;;5009263;28;20370;-71
2021/12/02 06:15:16;;;;;;;;;;;4.30;99.90;;;;;;5006955;28;19980;-71
2021/12/02 06:17:42;;;;;;;;;;;4.40;99.90;;;;;;5006928;28;20401;-70
2021/12/02 06:20:09;;;;;;;;;;;4.40;99.90;;;;;;5006162;28;20469;-70
2021/12/02 06:22:34;;;;;;;;;;;4.40;99.90;;;;;;5005250;28;20007;-70
2021/12/02 06:27:31;;;;;;;;;;;4.40;99.90;;;;;;5011705;28;19939;-68
2021/12/02 06:29:58;;;;;;;;;;;4.40;99.90;;;;;;5007996;28;19960;-71
2021/12/02 06:32:23;;;;;;;;;;;4.30;99.90;;;;;;5004751;28;19914;-70
2021/12/02 06:34:49;;;;;;;;;;;4.20;99.90;;;;;;5007365;28;20221;-68
2021/12/02 06:37:14;;;;;;;;;;;4.10;99.90;;;;;;5008702;28;19910;-69
2021/12/02 06:39:40;;;;;;;;;;;4.10;99.90;;;;;;5021697;28;19936;-68
2021/12/02 06:42:05;;;;;;;;;;;4.10;99.90;;;;;;5015250;28;20362;-68
2021/12/02 06:44:32;;;;;;;;;;;4.20;99.90;;;;;;5012477;28;20176;-68
2021/12/02 06:46:58;;;;;;;;;;;4.30;99.90;;;;;;5027108;28;19910;-68
2021/12/02 06:49:23;;;;;;;;;;;4.30;99.90;;;;;;5010366;28;19913;-68
2021/12/02 06:51:49;;;;;;;;;;;4.40;99.90;;;;;;5010134;28;20408;-69
2021/12/02 06:54:14;;;;;;;;;;;4.30;99.90;;;;;;5009660;28;20052;-69
2021/12/02 06:56:40;;;;;;;;;;;4.20;99.90;;;;;;5011540;28;19917;-67
2021/12/02 06:59:05;;;;;;;;;;;4.10;99.90;;;;;;5010595;28;19910;-68
2021/12/02 07:01:32;;;;;;;;;;;4.10;99.90;;;;;;5011686;28;19909;-68
2021/12/02 07:03:58;;;;;;;;;;;4.00;99.90;;;;;;5022542;28;19917;-68
2021/12/02 07:06:23;;;;;;;;;;;4.00;99.90;;;;;;5026555;28;19983;-68
2021/12/02 07:08:49;;;;;;;;;;;3.90;99.90;;;;;;5012147;28;19933;-69
2021/12/02 07:11:14;;;;;;;;;;;3.90;99.90;;;;;;5012644;28;20433;-69
2021/12/02 07:13:40;;;;;;;;;;;3.80;99.90;;;;;;5012301;28;20271;-69
2021/12/02 07:16:05;;;;;;;;;;;3.80;99.90;;;;;;5012061;28;19916;-70
2021/12/02 07:18:36;;;;;;;;;;;3.80;99.90;;;;;;5012085;28;19952;-69
2021/12/02 07:21:01;;;;;;;;;;;3.80;99.90;;;;;;5012143;28;20393;-69
2021/12/02 07:23:27;;;;;;;;;;;3.80;99.90;;;;;;5012341;28;20027;-69
2021/12/02 07:25:52;;;;;;;;;;;3.80;99.90;;;;;;5011719;28;20264;-71
2021/12/02 07:28:19;;;;;;;;;;;3.70;99.90;;;;;;5011207;28;19913;-70
2021/12/02 07:30:50;;;;;;;;;;;3.80;99.90;;;;;;5010282;28;20020;-69
2021/12/02 07:33:15;;;;;;;;;;;3.80;99.90;;;;;;5011844;28;20007;-69
2021/12/02 07:35:41;;;;;;;;;;;3.80;99.90;;;;;;5011637;28;20008;-68
2021/12/02 07:38:07;;;;;;;;;;;3.90;99.90;;;;;;5011581;28;20133;-69
2021/12/02 07:40:33;;;;;;;;;;;3.90;99.90;;;;;;5018166;28;20369;-70
2021/12/02 07:42:59;;;;;;;;;;;3.90;99.90;;;;;;5031199;28;19909;-69
2021/12/02 07:45:28;;;;;;;;;;;3.80;99.90;;;;;;5056501;28;19901;-70
2021/12/02 07:47:53;;;;;;;;;;;3.80;99.90;;;;;;5043752;28;19917;-70
2021/12/02 07:50:19;;;;;;;;;;;3.80;99.90;;;;;;5033706;28;19944;-69
2021/12/02 07:52:48;;;;;;;;;;;3.80;99.90;;;;;;5030139;28;19917;-70
2021/12/02 07:55:14;;;;;;;;;;;3.90;99.90;;;;;;5011788;28;20465;-69
2021/12/02 07:57:42;;;;;;;;;;;3.90;99.90;;;;;;5012075;28;19909;-67
2021/12/02 08:00:08;;;;;;;;;;;4.00;99.90;;;;;;5011596;28;19910;-70
2021/12/02 08:02:35;;;;;;;;;;;4.10;99.90;;;;;;5011808;28;20384;-69
2021/12/02 08:05:01;;;;;;;;;;;4.20;99.90;;;;;;5012617;28;19918;-69
2021/12/02 08:07:26;;;;;;;;;;;4.20;99.90;;;;;;5044553;28;19913;-69
2021/12/02 08:09:52;;;;;;;;;;;4.20;99.90;;;;;;5034264;28;19955;-69
2021/12/02 08:12:17;;;;;;;;;;;4.20;99.90;;;;;;5053944;28;19924;-69
2021/12/02 08:14:43;;;;;;;;;;;4.20;99.90;;;;;;5045985;28;19913;-68
2021/12/02 08:17:08;;;;;;;;;;;4.20;99.90;;;;;;5048811;28;19932;-68
2021/12/02 08:19:34;;;;;;;;;;;4.40;99.90;;;;;;5045267;28;19909;-69
2021/12/02 08:21:59;;;;;;;;;;;4.40;99.90;;;;;;5034301;28;19966;-68
2021/12/02 08:24:25;;;;;;;;;;;4.40;99.90;;;;;;5046464;28;19948;-70
2021/12/02 08:26:52;;;;;;;;;;;4.30;99.90;;;;;;5024971;28;19983;-65
2021/12/02 08:29:17;;;;;;;;;;;4.20;99.90;;;;;;5010865;28;19932;-65
2021/12/02 08:31:44;;;;;;;;;;;4.00;99.90;;;;;;5015087;28;19909;-69
2021/12/02 08:34:09;;;;;;;;;;;4.00;99.90;;;;;;5015675;28;20318;-69
2021/12/02 08:36:55;;;;;;;;;;;3.90;99.90;;;;;;5025408;28;19918;-68
2021/12/02 08:39:40;;;;;;;;;;;3.90;99.90;;;;;;5010431;28;20020;-68
2021/12/02 08:42:06;;;;;;;;;;;3.80;99.90;;;;;;5029958;28;19931;-70
2021/12/02 08:44:34;;;;;;;;;;;3.80;99.90;;;;;;5045660;28;19913;-68
2021/12/02 08:46:59;;;;;;;;;;;3.70;99.90;;;;;;5044585;28;20282;-67
2021/12/02 08:49:25;;;;;;;;;;;3.70;99.90;;;;;;5029889;28;20051;-67
2021/12/02 08:51:51;;;;;;;;;;;3.70;99.90;;;;;;5030357;28;20307;-70
2021/12/02 08:54:17;;;;;;;;;;;3.70;99.90;;;;;;5029912;28;20399;-68
2021/12/02 08:56:42;;;;;;;;;;;3.70;99.90;;;;;;5030768;28;19913;-70
2021/12/02 08:59:08;;;;;;;;;;;3.60;99.90;;;;;;5029721;28;19913;-69
2021/12/02 09:01:34;;;;;;;;;;;3.60;99.90;;;;;;5037034;28;19956;-67
2021/12/02 09:04:02;;;;;;;;;;;3.70;99.90;;;;;;5049878;28;19936;-69
2021/12/02 09:06:27;;;;;;;;;;;3.70;99.90;;;;;;5050126;28;19996;-68
2021/12/02 09:08:58;;;;;;;;;;;3.70;99.90;;;;;;5020619;28;19949;-69
2021/12/02 09:11:24;;;;;;;;;;;3.80;99.90;;;;;;5020660;28;19964;-69
2021/12/02 09:13:51;;;;;;;;;;;3.90;99.90;;;;;;5014119;28;20417;-69
2021/12/02 09:16:16;;;;;;;;;;;4.00;99.90;;;;;;5031334;28;19996;-70
2021/12/02 09:18:42;;;;;;;;;;;4.00;99.90;;;;;;5011218;28;20416;-68
2021/12/02 09:21:07;;;;;;;;;;;4.00;99.90;;;;;;5010720;28;19909;-69
2021/12/02 09:23:33;;;;;;;;;;;4.00;99.90;;;;;;5024905;28;19964;-71
2021/12/02 09:25:58;;;;;;;;;;;4.00;99.90;;;;;;5011185;28;19909;-69
2021/12/02 09:28:24;;;;;;;;;;;4.10;99.90;;;;;;5040914;28;19909;-70
2021/12/02 09:30:50;;;;;;;;;;;4.20;99.90;;;;;;5035601;28;19979;-69
2021/12/02 09:33:16;;;;;;;;;;;4.20;99.90;;;;;;5007742;28;19945;-68
2021/12/02 09:35:41;;;;;;;;;;;4.20;99.90;;;;;;5009238;28;19963;-69
2021/12/02 09:38:08;;;;;;;;;;;4.30;99.90;;;;;;5009551;28;19983;-69
2021/12/02 09:40:34;;;;;;;;;;;4.30;99.90;;;;;;5008959;28;19909;-68
2021/12/02 09:42:59;;;;;;;;;;;4.40;99.90;;;;;;5008678;28;19920;-70
2021/12/02 09:45:25;;;;;;;;;;;4.40;99.90;;;;;;5009849;28;19909;-69
2021/12/02 09:47:50;;;;;;;;;;;4.40;99.90;;;;;;5009596;28;20291;-71
2021/12/02 09:50:21;;;;;;;;;;;4.40;99.90;;;;;;5009142;28;20394;-69
2021/12/02 09:52:47;;;;;;;;;;;4.40;99.90;;;;;;5011858;28;19913;-71
2021/12/02 09:57:59;;;;;;;;;;;4.40;99.90;;;;;;5010415;28;19917;-70
2021/12/02 10:00:37;;;;;;;;;;;4.50;99.90;;;;;;5009233;28;19914;-68
2021/12/02 10:03:06;;;;;;;;;;;4.40;99.90;;;;;;5015502;28;19913;-70
2021/12/02 10:05:47;;;;;;;;;;;4.40;99.90;;;;;;5029884;28;19913;-69
2021/12/02 10:08:28;;;;;;;;;;;4.40;99.90;;;;;;5008495;28;19914;-69
2021/12/02 10:11:02;;;;;;;;;;;4.50;99.90;;;;;;5017484;28;19960;-69
2021/12/02 10:13:45;;;;;;;;;;;4.60;99.90;;;;;;5013161;28;20419;-70
2021/12/02 10:16:28;;;;;;;;;;;4.80;99.90;;;;;;5013179;28;19915;-70
2021/12/02 10:19:05;;;;;;;;;;;4.90;99.90;;;;;;5018432;28;19909;-70
2021/12/02 10:21:39;;;;;;;;;;;5.00;99.90;;;;;;5028373;28;19937;-69
2021/12/02 10:24:07;;;;;;;;;;;4.90;99.90;;;;;;5012696;28;20374;-70
2021/12/02 10:26:37;;;;;;;;;;;4.90;99.90;;;;;;5027849;28;19917;-69
2021/12/02 10:29:31;;;;;;;;;;;5.00;99.90;;;;;;5011893;28;19945;-71
2021/12/02 10:32:06;;;;;;;;;;;4.90;99.90;;;;;;5004028;28;19940;-70
2021/12/02 10:34:31;;;;;;;;;;;5.00;99.90;;;;;;5012741;28;20013;-70
2021/12/02 10:37:08;;;;;;;;;;;5.00;99.90;;;;;;5012766;28;19939;-70
2021/12/02 10:39:33;;;;;;;;;;;5.10;99.90;;;;;;5019022;28;19914;-70
2021/12/02 10:42:01;;;;;;;;;;;5.10;99.90;;;;;;5033416;28;20004;-70
2021/12/02 10:44:31;;;;;;;;;;;5.00;99.90;;;;;;5036405;28;19917;-69
2021/12/02 10:47:00;;;;;;;;;;;5.00;99.90;;;;;;5035710;28;19909;-71
2021/12/02 10:49:26;;;;;;;;;;;4.60;99.90;;;;;;5034403;28;20243;-70
2021/12/02 10:51:53;;;;;;;;;;;4.30;99.90;;;;;;5034163;28;20302;-70
2021/12/02 10:54:21;;;;;;;;;;;4.10;99.90;;;;;;5033711;28;20012;-70
2021/12/02 10:56:51;;;;;;;;;;;4.00;99.90;;;;;;5051199;28;19913;-71
2021/12/02 10:59:29;;;;;;;;;;;3.90;99.90;;;;;;5035919;28;19917;-70
2021/12/02 11:01:57;;;;;;;;;;;3.80;99.90;;;;;;5034685;28;19909;-69
2021/12/02 11:04:22;;;;;;;;;;;3.80;99.90;;;;;;5048573;28;19924;-72
2021/12/02 11:06:50;;;;;;;;;;;3.80;99.90;;;;;;5038784;28;19910;-70
2021/12/02 11:09:26;;;;;;;;;;;3.80;99.90;;;;;;5025086;28;20340;-71
2021/12/02 11:12:06;;;;;;;;;;;3.90;99.90;;;;;;5045868;28;19921;-71
2021/12/02 11:14:32;;;;;;;;;;;3.90;99.90;;;;;;5020279;28;19917;-71
2021/12/02 11:17:15;;;;;;;;;;;3.80;99.90;;;;;;5013253;28;19913;-71
2021/12/02 11:19:44;;;;;;;;;;;3.70;99.90;;;;;;5013317;28;19941;-73
2021/12/02 11:22:11;;;;;;;;;;;3.50;99.90;;;;;;5012347;28;19976;-70
2021/12/02 11:24:37;;;;;;;;;;;3.10;99.90;;;;;;5012159;28;19921;-71
2021/12/02 11:27:14;;;;;;;;;;;2.80;99.90;;;;;;5010617;28;19910;-66
2021/12/02 11:30:05;;;;;;;;;;;2.70;99.90;;;;;;5010059;28;19921;-65
2021/12/02 11:32:33;;;;;;;;;;;2.80;99.90;;;;;;5007619;28;19921;-65
2021/12/02 11:35:01;;;;;;;;;;;2.80;99.90;;;;;;5024922;28;19909;-65
2021/12/02 11:37:27;;;;;;;;;;;2.90;99.90;;;;;;5009996;28;19913;-65
2021/12/02 11:39:53;;;;;;;;;;;2.90;99.90;;;;;;5011632;28;19937;-65
2021/12/02 11:42:19;;;;;;;;;;;3.10;99.90;;;;;;5030106;28;19920;-64
2021/12/02 11:44:46;;;;;;;;;;;3.20;99.90;;;;;;5026751;28;20305;-64
2021/12/02 11:47:11;;;;;;;;;;;3.10;99.90;;;;;;5019427;28;19913;-65
2021/12/02 11:49:37;;;;;;;;;;;3.30;99.90;;;;;;5032371;28;19928;-65
2021/12/02 11:52:03;;;;;;;;;;;3.30;99.90;;;;;;5049584;28;20383;-64
2021/12/02 11:54:28;;;;;;;;;;;3.30;99.90;;;;;;5032065;28;19920;-64
2021/12/02 11:56:54;;;;;;;;;;;3.40;99.90;;;;;;5031778;28;19916;-65
2021/12/02 11:59:21;;;;;;;;;;;3.30;99.90;;;;;;5034013;28;19913;-65
2021/12/02 12:01:46;;;;;;;;;;;3.40;99.90;;;;;;5031248;28;19920;-65
2021/12/02 12:04:13;;;;;;;;;;;3.30;99.90;;;;;;4968660;28;1740282;-65
2021/12/02 12:06:41;;;;;;;;;;;3.40;99.90;;;;;;5022192;28;20286;-65
2021/12/02 12:09:16;;;;;;;;;;;3.40;99.90;;;;;;5010216;28;20004;-65
2021/12/02 12:11:46;;;;;;;;;;;3.40;99.90;;;;;;5010803;28;20039;-64
2021/12/02 12:14:13;;;;;;;;;;;3.30;99.90;;;;;;5010137;28;19913;-65
2021/12/02 12:16:38;;;;;;;;;;;3.30;99.90;;;;;;5010090;28;19916;-65
2021/12/02 12:19:17;;;;;;;;;;;3.30;99.90;;;;;;5009436;28;19909;-66
2021/12/02 12:21:47;;;;;;;;;;;3.30;99.90;;;;;;5008487;28;19909;-65
2021/12/02 12:24:15;;;;;;;;;;;3.40;99.90;;;;;;5007744;28;20427;-63
2021/12/02 12:26:45;;;;;;;;;;;3.40;99.90;;;;;;5009155;28;20351;-64
2021/12/02 12:29:13;;;;;;;;;;;3.40;99.90;;;;;;5008788;28;19917;-65
2021/12/02 12:31:49;;;;;;;;;;;3.40;99.90;;;;;;5009322;28;20366;-65
2021/12/02 12:36:56;;;;;;;;;;;3.40;99.90;;;;;;5009698;28;20136;-65
2021/12/02 12:39:23;;;;;;;;;;;3.50;99.90;;;;;;5008714;28;19913;-65
2021/12/02 12:42:08;;;;;;;;;;;3.60;99.90;;;;;;5027173;28;19910;-67
2021/12/02 12:44:46;;;;;;;;;;;3.70;99.90;;;;;;5038087;28;19917;-66
2021/12/02 12:47:12;;;;;;;;;;;3.70;99.90;;;;;;5022540;28;19994;-67
2021/12/02 12:49:38;;;;;;;;;;;3.70;99.90;;;;;;5021646;28;19910;-67
2021/12/02 12:52:13;;;;;;;;;;;3.80;99.90;;;;;;5012271;28;20405;-66
2021/12/02 12:54:40;;;;;;;;;;;4.00;99.90;;;;;;5009440;28;19916;-66
2021/12/02 12:57:06;;;;;;;;;;;4.10;99.90;;;;;;5009016;28;19909;-67
2021/12/02 12:59:54;;;;;;;;;;;4.20;99.90;;;;;;5011949;28;19963;-67
2021/12/02 13:02:20;;;;;;;;;;;4.20;99.90;;;;;;5009545;28;19909;-67
2021/12/02 13:04:54;;;;;;;;;;;4.40;99.90;;;;;;5026704;28;19952;-67
2021/12/02 13:07:21;;;;;;;;;;;4.50;99.90;;;;;;5015523;28;19910;-68
2021/12/02 13:10:03;;;;;;;;;;;4.60;99.90;;;;;;5008459;28;19917;-67
2021/12/02 13:12:37;;;;;;;;;;;4.70;99.90;;;;;;5008771;28;19915;-67
2021/12/02 13:15:03;;;;;;;;;;;4.60;99.90;;;;;;5008846;28;19909;-68
2021/12/02 13:17:39;;;;;;;;;;;4.60;99.90;;;;;;5008732;28;19917;-68
2021/12/02 13:20:31;;;;;;;;;;;4.60;99.90;;;;;;5008784;28;19921;-70
2021/12/02 13:23:12;;;;;;;;;;;4.70;99.90;;;;;;5016264;28;19909;-72
2021/12/02 13:25:43;;;;;;;;;;;4.80;99.90;;;;;;5027049;28;19921;-69
2021/12/02 13:28:12;;;;;;;;;;;4.80;99.90;;;;;;5011590;28;19909;-72
2021/12/02 13:30:38;;;;;;;;;;;4.90;99.90;;;;;;5007736;28;19910;-71
2021/12/02 13:33:04;;;;;;;;;;;5.00;99.90;;;;;;5008204;28;20370;-70
2021/12/02 13:35:29;;;;;;;;;;;5.00;99.90;;;;;;5008493;28;20165;-73
2021/12/02 13:38:00;;;;;;;;;;;5.10;99.90;;;;;;5008848;28;19909;-71
2021/12/02 13:40:32;;;;;;;;;;;5.20;99.90;;;;;;5014929;28;20377;-71
2021/12/02 13:42:58;;;;;;;;;;;5.20;99.90;;;;;;5028079;28;20023;-71
2021/12/02 13:45:26;;;;;;;;;;;5.30;99.90;;;;;;5027542;28;20007;-72
2021/12/02 13:48:04;;;;;;;;;;;5.40;99.90;;;;;;5028745;28;19967;-72
2021/12/02 13:50:34;;;;;;;;;;;5.50;99.90;;;;;;5043905;28;20330;-71
2021/12/02 13:53:00;;;;;;;;;;;5.50;99.90;;;;;;5029070;28;20371;-73
2021/12/02 13:55:34;;;;;;;;;;;5.50;99.90;;;;;;5028221;28;19913;-72
2021/12/02 14:00:39;;;;;;;;;;;5.60;99.90;;;;;;5031413;28;19955;-68
2021/12/02 14:03:04;;;;;;;;;;;5.50;99.90;;;;;;5044226;28;19909;-73
2021/12/02 14:05:31;;;;;;;;;;;5.50;99.90;;;;;;5045807;28;19945;-72
2021/12/02 14:08:00;;;;;;;;;;;5.50;99.90;;;;;;5027452;28;19952;-73
2021/12/02 14:10:26;;;;;;;;;;;5.60;99.90;;;;;;5010194;28;19916;-72
2021/12/02 14:12:53;;;;;;;;;;;5.50;99.90;;;;;;5011082;28;19921;-72
2021/12/02 14:15:20;;;;;;;;;;;5.50;99.90;;;;;;5010877;28;19963;-73
2021/12/02 14:18:06;;;;;;;;;;;5.50;99.90;;;;;;5010913;28;19972;-67
2021/12/02 14:20:36;;;;;;;;;;;5.40;99.90;;;;;;5011441;28;20009;-71
2021/12/02 14:23:02;;;;;;;;;;;5.40;99.90;;;;;;5026890;28;20349;-71
2021/12/02 14:25:29;;;;;;;;;;;5.40;99.90;;;;;;5025663;28;19927;-72
2021/12/02 14:28:07;;;;;;;;;;;5.40;99.90;;;;;;5010745;28;19917;-71
2021/12/02 14:30:37;;;;;;;;;;;5.40;99.90;;;;;;5009235;28;19909;-72
2021/12/02 14:33:07;;;;;;;;;;;5.30;99.90;;;;;;5010309;28;20180;-73
2021/12/02 14:35:43;;;;;;;;;;;5.20;99.90;;;;;;5024080;28;19939;-72
2021/12/02 14:38:15;;;;;;;;;;;5.20;99.90;;;;;;5011230;28;19913;-71
2021/12/02 14:40:45;;;;;;;;;;;5.10;99.90;;;;;;5030190;28;19931;-71
2021/12/02 14:43:15;;;;;;;;;;;5.10;99.90;;;;;;5029566;28;19914;-72
2021/12/02 14:45:40;;;;;;;;;;;5.00;99.90;;;;;;5028843;28;19921;-73
2021/12/02 14:48:18;;;;;;;;;;;5.00;99.90;;;;;;5043791;28;19917;-72
2021/12/02 14:50:43;;;;;;;;;;;5.00;99.90;;;;;;5028607;28;19909;-71
2021/12/02 14:53:24;;;;;;;;;;;4.90;99.90;;;;;;5028765;28;19909;-70
2021/12/02 14:55:50;;;;;;;;;;;4.90;99.90;;;;;;5028991;28;19910;-70
2021/12/02 14:58:16;;;;;;;;;;;4.90;99.90;;;;;;5030368;28;20304;-71
2021/12/02 15:00:42;;;;;;;;;;;4.90;99.90;;;;;;5021958;28;20133;-70
2021/12/02 15:03:07;;;;;;;;;;;4.90;99.90;;;;;;5027403;28;19924;-71